Terminal Aerodrome Forecast
Issued by NWS Lake Charles, LA

Home | Current Version | Previous Version | Text Only | Print | Product List | Glossary On
Versions: 1 2 3 4 5 6 7 8 9 10 11 12 13 14 15 16 17
000
FTUS44 KLCH 190900 AAA
TAFAEX
TAF AMD
KAEX 190933Z 1910/2006 00000KT P6SM FEW009
      TEMPO 1910/1913 4SM BR BKN007
     FM191400 06004KT P6SM FEW025 SCT050
     FM191800 09008KT P6SM SCT050
     FM200000 VRB03KT P6SM SKC=

USA.gov is the U.S. government's official web portal to all federal, state and local government web resources and services.